createdAt,value
2022-12-17T00:03:49.404Z,361.83
2022-12-17T00:09:12.342Z,297.47
2022-12-17T00:14:32.677Z,301.00
2022-12-17T00:19:52.956Z,310.80
2022-12-17T00:25:16.739Z,299.07
2022-12-17T00:30:37.263Z,279.00
2022-12-17T00:35:58.003Z,231.20
2022-12-17T00:41:18.023Z,280.43
2022-12-17T00:46:38.417Z,239.50
2022-12-17T00:51:58.491Z,247.87
2022-12-17T00:57:20.852Z,313.93
2022-12-17T01:02:44.684Z,259.47
2022-12-17T01:08:05.025Z,246.03
2022-12-17T01:13:32.093Z,279.37
2022-12-17T01:18:52.747Z,254.93
2022-12-17T01:24:13.128Z,297.77
2022-12-17T01:29:36.110Z,246.10
2022-12-17T01:34:56.348Z,286.27
2022-12-17T01:40:16.800Z,215.33
2022-12-17T01:45:37.044Z,250.10
2022-12-17T01:51:03.030Z,200.30
2022-12-17T01:56:26.746Z,250.13
2022-12-17T02:01:47.004Z,240.60
2022-12-17T02:07:22.245Z,183.43
2022-12-17T02:12:45.683Z,239.97
2022-12-17T02:18:13.074Z,260.77
2022-12-17T02:23:45.439Z,325.77
2022-12-17T02:29:10.761Z,358.20
2022-12-17T02:34:31.251Z,270.47
2022-12-17T02:39:52.266Z,208.73
2022-12-17T02:45:17.190Z,179.17
2022-12-17T02:50:37.476Z,206.47
2022-12-17T02:55:57.875Z,179.93
2022-12-17T03:01:20.462Z,115.47
2022-12-17T03:06:41.037Z,147.87
2022-12-17T03:12:03.605Z,157.30
2022-12-17T03:17:23.950Z,134.17
2022-12-17T03:22:48.743Z,156.10
2022-12-17T03:28:08.899Z,134.57
2022-12-17T03:33:29.129Z,169.40
2022-12-17T03:38:49.537Z,179.80
2022-12-17T03:44:10.077Z,239.43
2022-12-17T03:49:32.807Z,175.87
2022-12-17T03:54:55.672Z,180.77
2022-12-17T04:00:35.213Z,182.60
2022-12-17T04:05:55.444Z,194.50
2022-12-17T04:11:19.556Z,199.83
2022-12-17T04:16:39.647Z,172.47
2022-12-17T04:22:02.767Z,192.37
2022-12-17T04:27:23.398Z,164.17
2022-12-17T04:32:43.772Z,168.27
2022-12-17T04:38:04.045Z,189.97
2022-12-17T04:43:27.502Z,146.23
2022-12-17T04:48:50.826Z,182.37
2022-12-17T04:54:27.902Z,171.90
2022-12-17T04:59:51.015Z,151.40
2022-12-17T05:05:11.419Z,182.53
2022-12-17T05:10:33.918Z,148.23
2022-12-17T05:15:56.798Z,149.77
2022-12-17T05:21:17.128Z,186.93
2022-12-17T05:26:43.057Z,159.57
2022-12-17T05:32:03.248Z,162.10
2022-12-17T05:37:23.427Z,183.43
2022-12-17T05:42:43.580Z,163.27
2022-12-17T05:48:03.717Z,186.47
2022-12-17T05:53:24.853Z,188.97
2022-12-17T05:58:45.046Z,191.93
2022-12-17T06:04:07.806Z,191.20
2022-12-17T06:09:29.278Z,215.43
2022-12-17T06:14:49.542Z,200.47
2022-12-17T06:20:12.624Z,207.40
2022-12-17T06:25:33.995Z,204.30
2022-12-17T06:30:56.675Z,170.53
2022-12-17T06:36:22.227Z,193.50
2022-12-17T06:41:43.404Z,224.53
2022-12-17T06:47:06.136Z,213.70
2022-12-17T06:52:29.196Z,215.20
2022-12-17T06:57:50.633Z,203.50
2022-12-17T07:03:16.954Z,185.97
2022-12-17T07:08:39.820Z,187.90
2022-12-17T07:14:01.582Z,238.20
2022-12-17T07:19:27.830Z,182.87
2022-12-17T07:24:51.621Z,144.10
2022-12-17T07:30:16.602Z,162.27
2022-12-17T07:35:53.747Z,230.20
2022-12-17T07:41:13.723Z,157.00
2022-12-17T07:46:34.141Z,211.90
2022-12-17T07:51:54.228Z,213.90
2022-12-17T07:57:14.429Z,216.37
2022-12-17T08:02:37.102Z,213.30
2022-12-17T08:08:00.762Z,216.23
2022-12-17T08:13:24.389Z,219.83
2022-12-17T08:18:46.887Z,201.30
2022-12-17T08:24:09.132Z,203.80
2022-12-17T08:29:33.147Z,206.90
2022-12-17T08:34:53.490Z,176.87
2022-12-17T08:40:13.817Z,196.10
2022-12-17T08:45:38.101Z,223.50
2022-12-17T08:50:58.592Z,190.43
2022-12-17T08:56:18.666Z,162.43
2022-12-17T09:01:38.965Z,196.37
2022-12-17T09:06:59.433Z,183.00
2022-12-17T09:12:21.981Z,171.37
2022-12-17T09:17:45.025Z,176.83
2022-12-17T09:23:05.967Z,189.03
2022-12-17T09:28:26.420Z,177.63
2022-12-17T09:33:47.039Z,109.70
2022-12-17T09:39:09.867Z,132.87
2022-12-17T09:45:07.440Z,156.43
2022-12-17T09:50:33.883Z,141.20
2022-12-17T09:56:02.818Z,125.50
2022-12-17T10:01:34.266Z,159.97
2022-12-17T10:06:57.868Z,162.30
2022-12-17T10:12:34.888Z,170.63
2022-12-17T10:17:56.661Z,146.63
2022-12-17T10:23:19.160Z,164.47
2022-12-17T10:28:46.877Z,165.47
2022-12-17T10:34:07.310Z,100.47
2022-12-17T10:39:35.185Z,163.93
2022-12-17T10:44:58.015Z,102.40
2022-12-17T10:50:20.076Z,164.03
2022-12-17T10:55:47.547Z,157.60
2022-12-17T11:01:08.401Z,197.93
2022-12-17T11:06:38.892Z,140.13
2022-12-17T11:12:09.526Z,163.67
2022-12-17T11:17:36.506Z,149.90
2022-12-17T11:23:03.785Z,141.50
2022-12-17T11:28:32.903Z,77.57
2022-12-17T11:33:55.052Z,129.80
2022-12-17T11:39:24.469Z,137.47
2022-12-17T11:45:37.194Z,142.33
2022-12-17T11:51:07.938Z,139.50
2022-12-17T11:56:42.612Z,108.43
2022-12-17T12:02:21.699Z,125.00
2022-12-17T12:07:56.591Z,130.03
2022-12-17T12:13:38.559Z,134.40
2022-12-17T12:19:15.628Z,136.03
2022-12-17T12:24:42.063Z,111.37
2022-12-17T12:30:24.978Z,112.30
2022-12-17T12:35:47.326Z,119.27
2022-12-17T12:41:18.138Z,96.17
2022-12-17T12:47:31.833Z,115.97
2022-12-17T12:52:55.633Z,121.03
2022-12-17T12:58:25.356Z,91.03
2022-12-17T13:03:57.458Z,109.57
2022-12-17T13:09:30.744Z,119.80
2022-12-17T13:14:56.828Z,99.70
2022-12-17T13:19:59.964Z,117.90
2022-12-17T13:25:17.900Z,100.63
2022-12-17T13:30:36.391Z,91.30
2022-12-17T13:35:46.574Z,109.97
2022-12-17T13:41:12.242Z,132.20
2022-12-17T13:46:23.387Z,135.03
2022-12-17T13:51:32.774Z,135.63
2022-12-17T13:56:37.158Z,144.03
2022-12-17T14:01:46.736Z,150.90
2022-12-17T14:06:54.371Z,163.83
2022-12-17T14:12:22.372Z,154.00
2022-12-17T14:17:30.116Z,126.20
2022-12-17T14:22:33.522Z,174.27
2022-12-17T14:27:39.780Z,169.77
2022-12-17T14:32:46.353Z,181.57
2022-12-17T14:37:50.862Z,176.70
2022-12-17T14:42:57.680Z,179.40
2022-12-17T14:48:01.184Z,162.13
2022-12-17T14:53:26.965Z,166.07
2022-12-17T14:58:34.521Z,125.90
2022-12-17T15:03:42.166Z,208.80
2022-12-17T15:08:47.263Z,172.30
2022-12-17T15:13:56.629Z,178.83
2022-12-17T15:19:01.249Z,184.23
2022-12-17T15:24:08.314Z,179.53
2022-12-17T15:29:15.255Z,182.00
2022-12-17T15:34:19.158Z,181.83
2022-12-17T15:39:20.944Z,171.30
2022-12-17T15:44:25.029Z,178.33
2022-12-17T15:49:26.715Z,154.60
2022-12-17T15:54:30.912Z,176.43
2022-12-17T15:59:33.751Z,181.43
2022-12-17T16:04:40.936Z,189.23
2022-12-17T16:09:46.361Z,168.27
2022-12-17T16:14:50.532Z,169.47
2022-12-17T16:19:54.397Z,180.43
2022-12-17T16:24:56.168Z,180.50
2022-12-17T16:30:05.444Z,162.57
2022-12-17T16:35:07.572Z,173.97
2022-12-17T16:40:10.259Z,183.43
2022-12-17T16:45:14.447Z,194.70
2022-12-17T16:50:16.846Z,173.83
2022-12-17T16:55:18.510Z,166.40
2022-12-17T17:00:27.952Z,163.47
2022-12-17T17:05:37.444Z,188.00
2022-12-17T17:10:41.831Z,160.80
2022-12-17T17:15:48.977Z,162.57
2022-12-17T17:20:53.956Z,153.53
2022-12-17T17:26:01.670Z,193.17
2022-12-17T17:31:04.930Z,160.67
2022-12-17T17:36:12.364Z,159.10
2022-12-17T17:41:17.255Z,174.30
2022-12-17T17:46:21.655Z,160.10
2022-12-17T17:52:07.171Z,135.60
2022-12-17T17:56:54.437Z,133.87
2022-12-17T18:01:58.376Z,155.17
2022-12-17T18:12:43.108Z,157.23
2022-12-17T18:17:47.694Z,152.20
2022-12-17T18:22:52.640Z,140.50
2022-12-17T18:27:57.467Z,141.87
2022-12-17T18:33:02.252Z,126.83
2022-12-17T18:38:06.671Z,104.10
2022-12-17T18:43:27.089Z,103.23
2022-12-17T18:48:28.745Z,142.40
2022-12-17T18:53:33.930Z,139.27
2022-12-17T18:58:38.117Z,133.53
2022-12-17T19:03:41.668Z,125.33
2022-12-17T19:08:46.703Z,123.77
2022-12-17T19:13:52.093Z,144.90
2022-12-17T19:18:57.032Z,106.40
2022-12-17T19:24:05.844Z,169.38
2022-12-17T19:29:10.672Z,162.47
2022-12-17T19:34:17.724Z,158.70
2022-12-17T19:39:22.270Z,150.73
2022-12-17T19:44:25.120Z,150.90
2022-12-17T19:49:26.884Z,148.73
2022-12-17T19:54:36.266Z,135.37
2022-12-17T19:59:37.986Z,130.27
2022-12-17T20:04:44.974Z,149.73
2022-12-17T20:09:51.633Z,154.43
2022-12-17T20:14:55.696Z,178.97
2022-12-17T20:20:00.427Z,152.13
2022-12-17T20:25:07.674Z,147.80
2022-12-17T20:30:10.656Z,180.43
2022-12-17T20:35:12.505Z,114.53
2022-12-17T20:40:14.565Z,151.93
2022-12-17T20:45:23.061Z,158.43
2022-12-17T20:50:24.966Z,105.67
2022-12-17T20:55:31.137Z,163.77
2022-12-17T21:00:35.313Z,165.67
2022-12-17T21:05:38.264Z,157.73
2022-12-17T21:10:42.736Z,172.10
2022-12-17T21:15:50.687Z,150.23
2022-12-17T21:21:09.282Z,165.10
2022-12-17T21:26:24.446Z,166.70
2022-12-17T21:31:26.218Z,166.23
2022-12-17T21:36:30.299Z,166.50
2022-12-17T21:41:34.660Z,155.13
2022-12-17T21:46:41.231Z,117.93
2022-12-17T21:51:43.270Z,186.98
2022-12-17T21:56:45.151Z,156.13
2022-12-17T22:01:47.451Z,152.50
2022-12-17T22:06:51.863Z,136.33
2022-12-17T22:12:30.352Z,153.23
2022-12-17T22:17:32.105Z,134.03
2022-12-17T22:22:34.039Z,146.97
2022-12-17T22:27:41.512Z,157.67
2022-12-17T22:33:05.660Z,170.73
2022-12-17T22:40:23.947Z,172.33
2022-12-17T22:44:46.141Z,165.40
2022-12-17T22:49:04.490Z,176.97
2022-12-17T22:54:09.646Z,186.47
2022-12-17T22:59:18.626Z,164.13
2022-12-17T23:04:24.227Z,164.03
2022-12-17T23:09:28.314Z,170.60
2022-12-17T23:14:32.105Z,153.83
2022-12-17T23:19:33.807Z,163.53
2022-12-17T23:24:40.541Z,151.03
2022-12-17T23:29:42.261Z,131.03
2022-12-17T23:34:46.949Z,169.13
2022-12-17T23:39:48.605Z,152.90
2022-12-17T23:44:54.358Z,150.33
2022-12-17T23:49:58.480Z,142.00
2022-12-17T23:55:00.255Z,133.13
